createdAt,value
2022-07-25T00:01:08.630Z,96811.50
2022-07-25T00:03:37.242Z,96817.72
2022-07-25T00:06:12.780Z,96806.47
2022-07-25T00:08:45.003Z,96811.66
2022-07-25T00:11:11.684Z,96819.19
2022-07-25T00:13:40.496Z,96810.91
2022-07-25T00:16:07.388Z,96795.28
2022-07-25T00:18:36.249Z,96811.41
2022-07-25T00:21:03.399Z,96809.16
2022-07-25T00:23:30.032Z,96805.56
2022-07-25T00:25:59.498Z,96794.03
2022-07-25T00:28:26.091Z,96799.63
2022-07-25T00:30:52.773Z,96807.09
2022-07-25T00:33:21.739Z,96809.81
2022-07-25T00:35:48.362Z,96805.81
2022-07-25T00:38:15.164Z,96805.28
2022-07-25T00:40:43.975Z,96798.97
2022-07-25T00:43:10.711Z,96801.94
2022-07-25T00:45:37.271Z,96802.50
2022-07-25T00:48:07.426Z,96798.41
2022-07-25T00:50:36.669Z,96805.66
2022-07-25T00:53:03.463Z,96806.63
2022-07-25T00:55:32.835Z,96806.34
2022-07-25T00:58:00.065Z,96802.31
2022-07-25T01:00:26.803Z,96800.94
2022-07-25T01:02:53.636Z,96801.44
2022-07-25T01:05:20.224Z,96810.19
2022-07-25T01:07:48.061Z,96801.44
2022-07-25T01:10:19.100Z,96796.63
2022-07-25T01:12:51.866Z,96804.13
2022-07-25T01:15:26.404Z,96793.53
2022-07-25T01:17:55.673Z,96796.78
2022-07-25T01:20:29.821Z,96799.78
2022-07-25T01:22:59.798Z,96788.00
2022-07-25T01:25:28.964Z,96796.47
2022-07-25T01:27:56.201Z,96797.22
2022-07-25T01:30:24.147Z,96796.16
2022-07-25T01:32:51.112Z,96797.66
2022-07-25T01:35:18.089Z,96798.44
2022-07-25T01:37:47.258Z,96796.84
2022-07-25T01:40:14.807Z,96789.28
2022-07-25T01:42:44.397Z,96786.53
2022-07-25T01:45:12.004Z,96794.03
2022-07-25T01:47:40.971Z,96795.00
2022-07-25T01:50:08.802Z,96806.78
2022-07-25T01:52:39.698Z,96811.53
2022-07-25T01:55:07.722Z,96807.97
2022-07-25T01:57:36.198Z,96804.19
2022-07-25T02:00:09.102Z,96805.16
2022-07-25T02:02:35.694Z,96803.09
2022-07-25T02:05:07.557Z,96799.59
2022-07-25T02:07:36.850Z,96792.97
2022-07-25T02:10:07.086Z,96788.38
2022-07-25T02:12:34.027Z,96790.13
2022-07-25T02:15:00.816Z,96787.09
2022-07-25T02:17:29.662Z,96782.97
2022-07-25T02:19:56.256Z,96790.47
2022-07-25T02:22:25.203Z,96787.13
2022-07-25T02:24:56.596Z,96788.91
2022-07-25T02:27:23.266Z,96782.38
2022-07-25T02:29:52.742Z,96790.72
2022-07-25T02:32:19.288Z,96786.63
2022-07-25T02:34:45.941Z,96778.03
2022-07-25T02:37:13.079Z,96783.59
2022-07-25T02:39:39.852Z,96779.56
2022-07-25T02:42:06.954Z,96772.25
2022-07-25T02:44:33.473Z,96765.84
2022-07-25T02:47:04.622Z,96771.03
2022-07-25T02:49:31.166Z,96769.94
2022-07-25T02:51:57.754Z,96768.75
2022-07-25T02:54:24.512Z,96764.63
2022-07-25T02:56:53.583Z,96762.63
2022-07-25T02:59:20.139Z,96761.88
2022-07-25T03:01:46.727Z,96769.84
2022-07-25T03:04:13.402Z,96762.00
2022-07-25T03:06:43.195Z,96756.94
2022-07-25T03:09:10.142Z,96759.25
2022-07-25T03:11:42.448Z,96754.28
2022-07-25T03:14:10.166Z,96754.44
2022-07-25T03:16:36.919Z,96759.09
2022-07-25T03:19:03.605Z,96755.88
2022-07-25T03:21:30.216Z,96752.09
2022-07-25T03:23:56.763Z,96755.31
2022-07-25T03:26:23.330Z,96757.03
2022-07-25T03:28:56.528Z,96757.31
2022-07-25T03:31:23.116Z,96761.03
2022-07-25T03:33:49.700Z,96755.78
2022-07-25T03:36:19.783Z,96751.66
2022-07-25T03:38:48.749Z,96752.50
2022-07-25T03:41:15.352Z,96749.47
2022-07-25T03:43:41.908Z,96754.22
2022-07-25T03:46:10.942Z,96755.91
2022-07-25T03:48:37.754Z,96750.50
2022-07-25T03:51:07.053Z,96753.66
2022-07-25T03:53:54.181Z,96759.91
2022-07-25T03:56:25.538Z,96754.34
2022-07-25T03:58:52.090Z,96750.34
2022-07-25T04:01:18.757Z,96736.13
2022-07-25T04:03:45.877Z,96749.88
2022-07-25T04:06:15.482Z,96754.13
2022-07-25T04:08:44.643Z,96758.69
2022-07-25T04:11:11.192Z,96763.41
2022-07-25T04:13:42.688Z,96744.63
2022-07-25T04:16:14.815Z,96765.13
2022-07-25T04:18:51.667Z,96765.41
2022-07-25T04:21:18.879Z,96769.19
2022-07-25T04:23:47.922Z,96765.97
2022-07-25T04:26:14.608Z,96760.28
2022-07-25T04:28:43.388Z,96761.78
2022-07-25T04:31:10.051Z,96755.91
2022-07-25T04:33:37.942Z,96755.53
2022-07-25T04:36:07.589Z,96769.63
2022-07-25T04:38:37.797Z,96770.47
2022-07-25T04:41:05.075Z,96767.69
2022-07-25T04:43:31.694Z,96762.19
2022-07-25T04:46:01.310Z,96763.72
2022-07-25T04:48:30.071Z,96763.72
2022-07-25T04:50:58.867Z,96762.53
2022-07-25T04:53:27.596Z,96759.47
2022-07-25T04:55:54.139Z,96759.44
2022-07-25T04:58:20.779Z,96762.53
2022-07-25T05:00:47.396Z,96769.63
2022-07-25T05:03:14.401Z,96764.19
2022-07-25T05:05:40.938Z,96770.06
2022-07-25T05:08:07.539Z,96764.25
2022-07-25T05:10:34.116Z,96766.38
2022-07-25T05:13:00.666Z,96765.13
2022-07-25T05:15:27.340Z,96762.06
2022-07-25T05:17:53.940Z,96770.22
2022-07-25T05:20:22.862Z,96766.50
2022-07-25T05:22:49.489Z,96773.03
2022-07-25T05:25:19.043Z,96778.25
2022-07-25T05:27:45.709Z,96764.63
2022-07-25T05:30:15.981Z,96776.78
2022-07-25T05:32:47.665Z,96769.75
2022-07-25T05:35:15.757Z,96767.81
2022-07-25T05:37:42.505Z,96762.66
2022-07-25T05:40:09.275Z,96769.84
2022-07-25T05:42:38.638Z,96764.38
2022-07-25T05:45:05.841Z,96760.81
2022-07-25T05:47:32.403Z,96766.31
2022-07-25T05:50:01.596Z,96762.97
2022-07-25T05:52:28.225Z,96763.97
2022-07-25T05:54:54.813Z,96766.06
2022-07-25T05:57:21.791Z,96755.72
2022-07-25T05:59:48.441Z,96765.69
2022-07-25T06:02:15.289Z,96748.41
2022-07-25T06:04:44.232Z,96742.78
2022-07-25T06:07:10.919Z,96752.69
2022-07-25T06:09:45.790Z,96750.78
2022-07-25T06:12:14.015Z,96753.97
2022-07-25T06:14:41.165Z,96755.22
2022-07-25T06:17:07.794Z,96739.53
2022-07-25T06:19:37.035Z,96748.38
2022-07-25T06:22:05.844Z,96744.06
2022-07-25T06:24:38.140Z,96753.13
2022-07-25T06:27:10.179Z,96734.56
2022-07-25T06:29:40.499Z,96732.47
2022-07-25T06:32:07.135Z,96738.06
2022-07-25T06:34:36.177Z,96730.78
2022-07-25T06:37:02.813Z,96741.59
2022-07-25T06:39:29.360Z,96736.28
2022-07-25T06:41:56.106Z,96730.38
2022-07-25T06:44:22.685Z,96736.84
2022-07-25T06:46:51.464Z,96719.91
2022-07-25T06:49:20.690Z,96745.75
2022-07-25T06:51:47.324Z,96740.78
2022-07-25T06:54:15.620Z,96742.94
2022-07-25T06:56:42.191Z,96740.75
2022-07-25T06:59:11.446Z,96730.38
2022-07-25T07:01:38.264Z,96734.66
2022-07-25T07:04:05.388Z,96736.34
2022-07-25T07:06:32.398Z,96732.28
2022-07-25T07:09:01.184Z,96735.78
2022-07-25T07:11:29.992Z,96727.78
2022-07-25T07:14:03.239Z,96732.84
2022-07-25T07:16:31.797Z,96734.50
2022-07-25T07:19:02.991Z,96728.06
2022-07-25T07:21:29.599Z,96732.94
2022-07-25T07:23:56.991Z,96727.22
2022-07-25T07:26:26.988Z,96721.69
2022-07-25T07:28:54.963Z,96729.34
2022-07-25T07:31:23.860Z,96737.41
2022-07-25T07:33:50.499Z,96741.56
2022-07-25T07:36:19.669Z,96721.09
2022-07-25T07:38:46.678Z,96732.41
2022-07-25T07:41:13.393Z,96730.81
2022-07-25T07:43:40.108Z,96728.13
2022-07-25T07:46:09.060Z,96723.84
2022-07-25T07:48:38.193Z,96732.34
2022-07-25T07:51:05.473Z,96733.69
2022-07-25T07:53:50.609Z,96729.34
2022-07-25T07:56:21.313Z,96734.50
2022-07-25T07:58:48.085Z,96728.75
2022-07-25T08:01:14.698Z,96721.84
2022-07-25T08:03:41.292Z,96722.28
2022-07-25T08:06:12.862Z,96725.16
2022-07-25T08:08:41.795Z,96730.88
2022-07-25T08:11:08.357Z,96723.38
2022-07-25T08:13:35.130Z,96719.41
2022-07-25T08:16:03.682Z,96719.69
2022-07-25T08:18:33.733Z,96719.72
2022-07-25T08:21:06.072Z,96717.81
2022-07-25T08:23:35.428Z,96714.88
2022-07-25T08:26:02.492Z,96719.44
2022-07-25T08:28:31.565Z,96715.97
2022-07-25T08:30:59.101Z,96718.31
2022-07-25T08:33:26.409Z,96706.25
2022-07-25T08:35:58.853Z,96712.75
2022-07-25T08:38:29.419Z,96717.63
2022-07-25T08:41:00.002Z,96707.84
2022-07-25T08:43:29.793Z,96704.81
2022-07-25T08:45:56.444Z,96713.38
2022-07-25T08:48:25.482Z,96697.66
2022-07-25T08:50:57.213Z,96703.69
2022-07-25T08:53:33.589Z,96702.38
2022-07-25T08:56:01.904Z,96701.72
2022-07-25T08:58:35.767Z,96699.25
2022-07-25T09:01:02.365Z,96702.69
2022-07-25T09:03:31.518Z,96703.84
2022-07-25T09:05:58.899Z,96700.19
2022-07-25T09:08:27.922Z,96698.19
2022-07-25T09:10:56.833Z,96695.13
2022-07-25T09:13:23.695Z,96701.22
2022-07-25T09:16:00.618Z,96698.09
2022-07-25T09:18:28.164Z,96700.50
2022-07-25T09:20:59.466Z,96701.53
2022-07-25T09:23:38.130Z,96705.72
2022-07-25T09:26:11.785Z,96703.88
2022-07-25T09:28:49.864Z,96695.88
2022-07-25T09:31:19.058Z,96696.44
2022-07-25T09:33:48.997Z,96693.31
2022-07-25T09:36:21.635Z,96693.69
2022-07-25T09:38:59.535Z,96687.53
2022-07-25T09:41:42.359Z,96690.16
2022-07-25T09:44:19.580Z,96683.25
2022-07-25T09:46:46.419Z,96679.88
2022-07-25T09:49:15.677Z,96681.38
2022-07-25T09:51:44.794Z,96674.47
2022-07-25T09:54:11.904Z,96673.94
2022-07-25T09:56:38.524Z,96677.25
2022-07-25T09:59:05.742Z,96680.03
2022-07-25T10:01:38.394Z,96674.78
2022-07-25T10:04:27.768Z,96674.78
2022-07-25T10:07:10.973Z,96679.44
2022-07-25T10:09:49.815Z,96669.28
2022-07-25T10:12:21.849Z,96670.41
2022-07-25T10:15:26.222Z,96665.44
2022-07-25T10:18:07.033Z,96662.44
2022-07-25T10:20:34.352Z,96652.00
2022-07-25T10:23:03.149Z,96652.66
2022-07-25T10:25:29.960Z,96647.28
2022-07-25T10:28:10.064Z,96642.78
2022-07-25T10:30:38.051Z,96645.69
2022-07-25T10:33:12.210Z,96651.59
2022-07-25T10:35:39.457Z,96641.97
2022-07-25T10:38:08.789Z,96641.00
2022-07-25T10:40:44.315Z,96634.72
2022-07-25T10:43:14.921Z,96643.41
2022-07-25T10:45:44.537Z,96641.88
2022-07-25T10:48:22.310Z,96635.63
2022-07-25T10:51:13.532Z,96634.81
2022-07-25T10:53:45.971Z,96635.66
2022-07-25T10:56:16.791Z,96620.63
2022-07-25T10:58:54.000Z,96622.13
2022-07-25T11:01:26.796Z,96628.34
2022-07-25T11:04:16.464Z,96617.78
2022-07-25T11:06:43.393Z,96621.00
2022-07-25T11:09:22.707Z,96611.00
2022-07-25T11:11:56.382Z,96611.59
2022-07-25T11:14:24.148Z,96616.31
2022-07-25T11:16:52.643Z,96608.28
2022-07-25T11:19:26.546Z,96603.88
2022-07-25T11:21:55.745Z,96601.97
2022-07-25T11:24:43.310Z,96599.00
2022-07-25T11:27:12.542Z,96602.22
2022-07-25T11:29:40.747Z,96597.56
2022-07-25T11:32:09.827Z,96598.16
2022-07-25T11:34:45.170Z,96595.44
2022-07-25T11:37:18.615Z,96590.44
2022-07-25T11:39:46.758Z,96578.59
2022-07-25T11:42:16.802Z,96574.16
2022-07-25T11:44:53.233Z,96581.91
2022-07-25T11:47:29.054Z,96579.72
2022-07-25T11:50:03.934Z,96578.66
2022-07-25T11:52:38.087Z,96572.59
2022-07-25T11:55:14.031Z,96573.69
2022-07-25T11:57:47.110Z,96568.50
2022-07-25T12:00:19.568Z,96558.09
2022-07-25T12:02:50.558Z,96559.03
2022-07-25T12:05:22.384Z,96558.13
2022-07-25T12:07:51.801Z,96556.03
2022-07-25T12:10:18.297Z,96556.38
2022-07-25T12:12:59.016Z,96549.31
2022-07-25T12:15:44.681Z,96547.41
2022-07-25T12:18:12.593Z,96539.59
2022-07-25T12:20:42.952Z,96541.22
2022-07-25T12:23:12.648Z,96535.53
2022-07-25T12:25:42.227Z,96526.06
2022-07-25T12:28:11.821Z,96527.56
2022-07-25T12:30:42.506Z,96528.75
2022-07-25T12:33:09.778Z,96522.97
2022-07-25T12:35:39.104Z,96524.31
2022-07-25T12:38:06.008Z,96521.78
2022-07-25T12:40:33.706Z,96518.38
2022-07-25T12:43:01.118Z,96519.09
2022-07-25T12:45:28.027Z,96522.69
2022-07-25T12:47:57.136Z,96516.44
2022-07-25T12:50:26.015Z,96517.19
2022-07-25T12:52:55.915Z,96501.75
2022-07-25T12:55:24.962Z,96507.81
2022-07-25T12:57:53.999Z,96497.28
2022-07-25T13:00:22.319Z,96495.53
2022-07-25T13:02:52.103Z,96499.22
2022-07-25T13:05:23.934Z,96482.91
2022-07-25T13:07:53.078Z,96490.63
2022-07-25T13:10:22.277Z,96478.88
2022-07-25T13:12:51.334Z,96481.13
2022-07-25T13:15:22.286Z,96473.53
2022-07-25T13:17:49.469Z,96473.69
2022-07-25T13:20:18.282Z,96473.66
2022-07-25T13:22:44.830Z,96468.41
2022-07-25T13:25:11.398Z,96472.59
2022-07-25T13:27:38.855Z,96473.03
2022-07-25T13:30:07.439Z,96463.38
2022-07-25T13:32:36.841Z,96466.19
2022-07-25T13:35:04.017Z,96465.94
2022-07-25T13:37:33.507Z,96458.56
2022-07-25T13:40:02.783Z,96449.41
2022-07-25T13:42:29.457Z,96452.97
2022-07-25T13:44:56.097Z,96454.75
2022-07-25T13:47:25.751Z,96455.72
2022-07-25T13:49:58.758Z,96454.47
2022-07-25T13:52:25.355Z,96452.25
2022-07-25T13:54:54.000Z,96454.94
2022-07-25T13:57:20.829Z,96456.78
2022-07-25T13:59:47.410Z,96449.22
2022-07-25T14:02:16.549Z,96445.47
2022-07-25T14:04:43.179Z,96451.72
2022-07-25T14:07:09.879Z,96454.09
2022-07-25T14:09:38.837Z,96449.44
2022-07-25T14:12:05.546Z,96449.94
2022-07-25T14:14:32.531Z,96451.44
2022-07-25T14:16:59.282Z,96442.09
2022-07-25T14:19:28.998Z,96445.22
2022-07-25T14:21:55.642Z,96447.88
2022-07-25T14:24:22.257Z,96448.47
2022-07-25T14:26:49.717Z,96443.91
2022-07-25T14:29:16.292Z,96437.16
2022-07-25T14:31:45.240Z,96440.13
2022-07-25T14:34:12.004Z,96435.13
2022-07-25T14:36:38.552Z,96431.69
2022-07-25T14:39:07.793Z,96436.75
2022-07-25T14:41:35.026Z,96428.88
2022-07-25T14:44:01.607Z,96438.53
2022-07-25T14:46:30.727Z,96433.03
2022-07-25T14:49:00.243Z,96434.38
2022-07-25T14:51:30.516Z,96440.44
2022-07-25T14:53:57.551Z,96441.88
2022-07-25T14:56:29.004Z,96436.06
2022-07-25T14:58:55.566Z,96422.50
2022-07-25T15:01:25.666Z,96429.03
2022-07-25T15:03:56.181Z,96421.03
2022-07-25T15:06:29.009Z,96424.16
2022-07-25T15:08:58.447Z,96423.69
2022-07-25T15:11:27.518Z,96417.63
2022-07-25T15:13:57.228Z,96405.44
2022-07-25T15:16:24.546Z,96421.66
2022-07-25T15:19:15.035Z,96427.16
2022-07-25T15:21:38.293Z,96421.63
2022-07-25T15:24:05.373Z,96420.56
2022-07-25T15:26:32.696Z,96421.63
2022-07-25T15:29:00.226Z,96407.84
2022-07-25T15:31:28.974Z,96414.09
2022-07-25T15:33:55.542Z,96406.84
2022-07-25T15:36:29.375Z,96402.44
2022-07-25T15:38:59.155Z,96409.94
2022-07-25T15:41:27.983Z,96406.72
2022-07-25T15:43:57.018Z,96402.53
2022-07-25T15:46:26.483Z,96391.56
2022-07-25T15:48:53.609Z,96389.75
2022-07-25T15:51:20.396Z,96392.84
2022-07-25T15:53:47.308Z,96404.25
2022-07-25T15:56:17.285Z,96386.69
2022-07-25T15:58:49.905Z,96383.81
2022-07-25T16:01:16.784Z,96390.78
2022-07-25T16:03:43.916Z,96389.75
2022-07-25T16:06:18.442Z,96390.66
2022-07-25T16:08:50.808Z,96383.78
2022-07-25T16:11:17.624Z,96382.13
2022-07-25T16:13:46.554Z,96395.50
2022-07-25T16:16:13.343Z,96392.69
2022-07-25T16:18:39.972Z,96393.66
2022-07-25T16:21:09.695Z,96399.06
2022-07-25T16:23:41.566Z,96396.63
2022-07-25T16:26:14.115Z,96398.19
2022-07-25T16:28:40.827Z,96406.06
2022-07-25T16:31:09.988Z,96399.06
2022-07-25T16:33:36.605Z,96399.50
2022-07-25T16:36:04.962Z,96410.03
2022-07-25T16:38:32.204Z,96413.84
2022-07-25T16:41:01.139Z,96414.97
2022-07-25T16:43:29.968Z,96410.72
2022-07-25T16:45:56.596Z,96412.47
2022-07-25T16:48:27.775Z,96421.59
2022-07-25T16:50:57.743Z,96427.25
2022-07-25T16:53:26.812Z,96428.81
2022-07-25T16:55:53.371Z,96424.34
2022-07-25T16:58:19.965Z,96420.06
2022-07-25T17:00:49.218Z,96433.56
2022-07-25T17:03:15.817Z,96435.63
2022-07-25T17:05:42.511Z,96427.97
2022-07-25T17:08:09.089Z,96442.53
2022-07-25T17:10:35.605Z,96438.66
2022-07-25T17:13:02.203Z,96441.97
2022-07-25T17:15:28.791Z,96439.81
2022-07-25T17:17:55.372Z,96437.53
2022-07-25T17:20:22.108Z,96437.16
2022-07-25T17:22:50.887Z,96446.13
2022-07-25T17:25:17.866Z,96434.78
2022-07-25T17:27:44.901Z,96440.97
2022-07-25T17:30:12.305Z,96438.53
2022-07-25T17:32:41.580Z,96436.13
2022-07-25T17:35:11.069Z,96438.75
2022-07-25T17:37:37.977Z,96443.81
2022-07-25T17:40:07.356Z,96427.97
2022-07-25T17:42:34.099Z,96429.28
2022-07-25T17:45:00.715Z,96422.91
2022-07-25T17:47:27.345Z,96440.78
2022-07-25T17:49:54.175Z,96419.72
2022-07-25T17:52:20.729Z,96439.28
2022-07-25T17:54:47.385Z,96432.19
2022-07-25T17:57:16.207Z,96434.03
2022-07-25T17:59:42.816Z,96444.66
2022-07-25T18:02:10.211Z,96445.56
2022-07-25T18:04:37.192Z,96450.94
2022-07-25T18:07:09.173Z,96445.88
2022-07-25T18:09:36.028Z,96451.09
2022-07-25T18:12:03.124Z,96448.25
2022-07-25T18:14:33.804Z,96441.75
2022-07-25T18:17:00.504Z,96443.19
2022-07-25T18:19:32.243Z,96454.53
2022-07-25T18:22:01.273Z,96461.41
2022-07-25T18:24:33.238Z,96469.41
2022-07-25T18:27:00.271Z,96467.91
2022-07-25T18:29:29.053Z,96474.94
2022-07-25T18:31:58.344Z,96482.38
2022-07-25T18:34:27.092Z,96473.63
2022-07-25T18:36:56.026Z,96494.47
2022-07-25T18:39:22.999Z,96504.34
2022-07-25T18:41:51.784Z,96498.00
2022-07-25T18:44:19.279Z,96485.66
2022-07-25T18:46:46.982Z,96484.38
2022-07-25T18:49:16.281Z,96487.13
2022-07-25T18:51:45.460Z,96474.22
2022-07-25T18:54:14.585Z,96482.25
2022-07-25T18:56:44.569Z,96511.56
2022-07-25T18:59:13.598Z,96524.22
2022-07-25T19:01:41.033Z,96519.69
2022-07-25T19:04:10.295Z,96525.59
2022-07-25T19:06:37.682Z,96533.81
2022-07-25T19:09:07.068Z,96537.06
2022-07-25T19:11:37.725Z,96538.50
2022-07-25T19:14:09.003Z,96543.31
2022-07-25T19:16:43.601Z,96550.34
2022-07-25T19:19:10.243Z,96561.81
2022-07-25T19:21:37.771Z,96569.75
2022-07-25T19:24:07.587Z,96566.34
2022-07-25T19:26:37.391Z,96574.09
2022-07-25T19:29:09.758Z,96589.53
2022-07-25T19:31:41.589Z,96591.47
2022-07-25T19:34:09.398Z,96608.41
2022-07-25T19:36:38.645Z,96611.56
2022-07-25T19:39:06.505Z,96612.84
2022-07-25T19:41:33.821Z,96626.25
2022-07-25T19:44:05.431Z,96638.47
2022-07-25T19:46:34.318Z,96642.03
2022-07-25T19:49:02.170Z,96652.53
2022-07-25T19:51:28.820Z,96659.28
2022-07-25T19:53:55.583Z,96651.53
2022-07-25T19:56:22.118Z,96655.38
2022-07-25T19:58:48.984Z,96662.22
2022-07-25T20:01:16.346Z,96679.31
2022-07-25T20:03:43.041Z,96677.16
2022-07-25T20:06:13.124Z,96689.31
2022-07-25T20:08:43.323Z,96680.59
2022-07-25T20:11:11.217Z,96682.09
2022-07-25T20:13:42.479Z,96694.78
2022-07-25T20:16:09.715Z,96697.56
2022-07-25T20:18:36.406Z,96690.13
2022-07-25T20:21:05.490Z,96678.06
2022-07-25T20:23:34.579Z,96677.63
2022-07-25T20:26:07.704Z,96679.19
2022-07-25T20:28:34.792Z,96678.78
2022-07-25T20:31:01.973Z,96684.78
2022-07-25T20:33:28.976Z,96673.97
2022-07-25T20:35:55.770Z,96675.66
2022-07-25T20:38:23.167Z,96687.47
2022-07-25T20:40:51.146Z,96695.81
2022-07-25T20:43:23.057Z,96707.94
2022-07-25T20:45:52.456Z,96713.75
2022-07-25T20:48:18.991Z,96713.78
2022-07-25T20:50:45.766Z,96704.94
2022-07-25T20:53:14.837Z,96696.09
2022-07-25T20:55:46.662Z,96696.47
2022-07-25T20:58:13.224Z,96692.66
2022-07-25T21:00:40.590Z,96693.19
2022-07-25T21:03:08.078Z,96695.97
2022-07-25T21:05:37.807Z,96704.28
2022-07-25T21:08:05.481Z,96697.69
2022-07-25T21:10:34.503Z,96711.13
2022-07-25T21:13:04.217Z,96704.28
2022-07-25T21:15:33.859Z,96701.28
2022-07-25T21:18:00.940Z,96701.50
2022-07-25T21:20:27.684Z,96718.47
2022-07-25T21:22:56.391Z,96728.31
2022-07-25T21:25:25.288Z,96726.34
2022-07-25T21:27:52.386Z,96737.16
2022-07-25T21:30:18.953Z,96724.63
2022-07-25T21:32:47.835Z,96731.16
2022-07-25T21:35:22.181Z,96729.19
2022-07-25T21:37:48.870Z,96738.53
2022-07-25T21:40:17.843Z,96737.31
2022-07-25T21:42:45.276Z,96750.22
2022-07-25T21:45:14.430Z,96754.56
2022-07-25T21:47:45.892Z,96754.06
2022-07-25T21:50:31.371Z,96746.50
2022-07-25T21:52:58.156Z,96745.81
2022-07-25T21:55:27.787Z,96746.09
2022-07-25T21:57:54.498Z,96746.22
2022-07-25T22:00:21.281Z,96748.22
2022-07-25T22:02:48.415Z,96752.50
2022-07-25T22:05:16.529Z,96753.31
2022-07-25T22:07:48.553Z,96751.81
2022-07-25T22:10:21.429Z,96740.50
2022-07-25T22:12:48.367Z,96754.53
2022-07-25T22:15:15.656Z,96762.38
2022-07-25T22:17:48.656Z,96760.91
2022-07-25T22:20:16.842Z,96765.22
2022-07-25T22:22:43.442Z,96764.19
2022-07-25T22:25:10.337Z,96764.47
2022-07-25T22:27:37.021Z,96762.19
2022-07-25T22:30:04.915Z,96779.16
2022-07-25T22:32:31.581Z,96769.53
2022-07-25T22:35:00.392Z,96770.34
2022-07-25T22:37:27.004Z,96763.56
2022-07-25T22:40:01.324Z,96775.47
2022-07-25T22:42:30.405Z,96757.41
2022-07-25T22:44:56.985Z,96775.78
2022-07-25T22:47:25.938Z,96776.34
2022-07-25T22:49:54.890Z,96794.25
2022-07-25T22:52:21.419Z,96798.06
2022-07-25T22:54:50.602Z,96804.84
2022-07-25T22:57:17.289Z,96792.78
2022-07-25T22:59:49.200Z,96785.28
2022-07-25T23:02:16.068Z,96792.56
2022-07-25T23:04:42.801Z,96810.69
2022-07-25T23:07:12.454Z,96812.00
2022-07-25T23:09:39.054Z,96813.00
2022-07-25T23:12:05.838Z,96808.72
2022-07-25T23:14:32.471Z,96818.84
2022-07-25T23:17:17.160Z,96829.41
2022-07-25T23:19:44.694Z,96818.31
2022-07-25T23:22:11.227Z,96824.19
2022-07-25T23:24:38.268Z,96833.47
2022-07-25T23:27:05.216Z,96826.94
2022-07-25T23:29:31.842Z,96835.75
2022-07-25T23:31:58.812Z,96833.47
2022-07-25T23:34:25.409Z,96836.53
2022-07-25T23:36:56.789Z,96847.09
2022-07-25T23:39:25.618Z,96849.34
2022-07-25T23:41:52.727Z,96836.00
2022-07-25T23:44:22.145Z,96833.75
2022-07-25T23:47:00.027Z,96840.06
2022-07-25T23:49:28.252Z,96838.06
2022-07-25T23:51:57.917Z,96840.06
2022-07-25T23:54:24.965Z,96847.63
2022-07-25T23:56:53.961Z,96860.25
2022-07-25T23:59:22.969Z,96855.97
